Terminal Aerodrome Forecast
Issued by NWS

Home | Current Version | Previous Version | Text Only | Print | Product List | Glossary Off
Versions: 1 2 3 4 5 6 7 8 9 10 11 12 13 14 15 16 17 18 19

904
FTUS43 KGRB 031930 AAA
TAFCWA
TAF AMD
KCWA 031930Z 0320/0418 32015G24KT P6SM -SN OVC020
     FM032300 30008KT P6SM SCT015 BKN020
     FM041000 29004KT P6SM SCT030
     FM041700 23005KT P6SM SCT010 BKN030=

USA.gov is the U.S. government's official web portal to all federal, state and local government web resources and services.